createdAt,value
2018-07-30T00:01:32.039Z,90.20
2018-07-30T00:05:27.924Z,90.30
2018-07-30T00:08:10.202Z,90.40
2018-07-30T00:10:39.966Z,90.30
2018-07-30T00:13:14.788Z,90.40
2018-07-30T00:15:49.748Z,90.40
2018-07-30T00:18:20.342Z,90.30
2018-07-30T00:20:57.719Z,90.30
2018-07-30T00:23:35.734Z,90.30
2018-07-30T00:26:09.377Z,90.50
2018-07-30T00:28:49.110Z,90.50
2018-07-30T00:31:26.053Z,90.50
2018-07-30T00:33:58.679Z,90.40
2018-07-30T00:36:44.769Z,90.50
2018-07-30T00:39:25.631Z,90.40
2018-07-30T00:42:00.230Z,90.50
2018-07-30T00:44:35.977Z,90.50
2018-07-30T00:47:08.758Z,90.80
2018-07-30T00:49:47.112Z,90.60
2018-07-30T00:52:18.638Z,90.70
2018-07-30T00:54:53.446Z,90.60
2018-07-30T00:57:27.196Z,90.60
2018-07-30T00:59:59.238Z,90.60
2018-07-30T01:02:33.656Z,90.40
2018-07-30T01:07:56.295Z,90.30
2018-07-30T01:10:34.106Z,90.20
2018-07-30T01:13:12.916Z,90.10
2018-07-30T01:15:42.740Z,90.10
2018-07-30T01:18:27.396Z,90.20
2018-07-30T01:21:05.278Z,90.30
2018-07-30T01:23:39.856Z,90.40
2018-07-30T01:26:22.665Z,90.50
2018-07-30T02:12:39.545Z,90.50
2018-07-30T02:15:08.456Z,91.50
2018-07-30T02:17:37.888Z,91.50
2018-07-30T02:20:07.599Z,91.60
2018-07-30T02:22:36.073Z,91.50
2018-07-30T02:25:04.912Z,91.50
2018-07-30T02:27:34.383Z,91.50
2018-07-30T02:30:03.008Z,91.50
2018-07-30T02:35:00.058Z,91.60
2018-07-30T02:37:28.761Z,91.50
2018-07-30T02:39:57.351Z,91.30
2018-07-30T02:42:25.876Z,91.20
2018-07-30T02:44:55.059Z,91.30
2018-07-30T02:47:24.351Z,91.10
2018-07-30T02:49:53.661Z,91.00
2018-07-30T02:52:22.143Z,91.00
2018-07-30T02:54:50.868Z,91.20
2018-07-30T02:57:20.218Z,91.20
2018-07-30T02:59:48.875Z,91.30
2018-07-30T03:02:18.021Z,91.30
2018-07-30T03:04:46.513Z,91.30
2018-07-30T03:07:15.384Z,91.30
2018-07-30T03:09:44.451Z,91.30
2018-07-30T03:12:12.978Z,91.40
2018-07-30T03:14:41.659Z,91.40
2018-07-30T03:17:10.436Z,91.30
2018-07-30T03:19:39.012Z,91.40
2018-07-30T03:22:07.641Z,91.60
2018-07-30T03:24:37.055Z,91.60
2018-07-30T03:27:06.006Z,91.60
2018-07-30T03:29:34.540Z,91.70
2018-07-30T03:32:03.032Z,91.70
2018-07-30T03:36:59.841Z,91.70
2018-07-30T03:39:28.329Z,91.70
2018-07-30T03:41:56.853Z,91.70
2018-07-30T03:44:25.462Z,91.80
2018-07-30T03:46:53.978Z,91.80
2018-07-30T03:49:22.532Z,91.70
2018-07-30T03:51:51.101Z,92.00
2018-07-30T03:54:19.687Z,92.00
2018-07-30T03:56:48.417Z,92.10
2018-07-30T03:59:16.917Z,92.10
2018-07-30T04:01:45.592Z,92.00
2018-07-30T04:04:14.242Z,92.20
2018-07-30T04:06:42.762Z,92.40
2018-07-30T04:09:11.509Z,92.50
2018-07-30T04:11:40.072Z,92.50
2018-07-30T04:14:08.625Z,92.50
2018-07-30T04:16:42.016Z,92.40
2018-07-30T04:19:10.647Z,92.50
2018-07-30T04:24:08.533Z,92.80
2018-07-30T04:29:06.316Z,92.90
2018-07-30T04:34:03.586Z,93.10
2018-07-30T04:39:02.701Z,93.10
2018-07-30T04:41:32.139Z,93.00
2018-07-30T04:44:02.471Z,93.20
2018-07-30T04:46:48.764Z,93.30
2018-07-30T04:52:46.600Z,93.40
2018-07-30T04:55:20.565Z,93.50
2018-07-30T04:58:07.059Z,93.50
2018-07-30T05:04:05.964Z,93.50
2018-07-30T05:06:36.196Z,93.60
2018-07-30T05:09:15.133Z,93.50
2018-07-30T05:11:47.434Z,93.50
2018-07-30T05:14:21.869Z,93.50
2018-07-30T05:16:58.814Z,93.50
2018-07-30T05:19:35.716Z,93.50
2018-07-30T05:22:21.257Z,93.30
2018-07-30T05:25:02.930Z,93.40
2018-07-30T05:27:43.718Z,93.40
2018-07-30T05:31:58.391Z,93.20
2018-07-30T05:34:51.113Z,93.30
2018-07-30T05:37:28.576Z,92.80
2018-07-30T05:42:43.771Z,92.50
2018-07-30T05:45:42.310Z,92.50
2018-07-30T05:48:27.047Z,92.40
2018-07-30T05:50:55.904Z,92.20
2018-07-30T05:54:14.751Z,92.40
2018-07-30T05:56:53.730Z,92.30
2018-07-30T06:00:19.434Z,92.60
2018-07-30T06:03:39.821Z,92.20
2018-07-30T06:06:14.130Z,92.20
2018-07-30T06:08:45.661Z,91.70
2018-07-30T06:11:35.675Z,91.80
2018-07-30T06:14:12.332Z,91.20
2018-07-30T06:16:49.495Z,91.40
2018-07-30T06:19:22.949Z,90.80
2018-07-30T06:22:08.812Z,90.70
2018-07-30T06:24:53.391Z,90.40
2018-07-30T06:27:39.222Z,90.60
2018-07-30T06:30:18.163Z,90.30
2018-07-30T06:33:12.235Z,90.30
2018-07-30T06:35:47.265Z,90.70
2018-07-30T06:46:27.299Z,90.20
2018-07-30T06:49:00.776Z,90.30
2018-07-30T06:54:51.039Z,90.00
2018-07-30T06:57:45.392Z,89.20
2018-07-30T07:03:06.533Z,89.10
2018-07-30T07:05:45.367Z,89.80
2018-07-30T07:08:32.552Z,89.00
2018-07-30T07:14:19.828Z,88.10
2018-07-30T07:17:21.932Z,86.90
2018-07-30T07:20:05.400Z,87.70
2018-07-30T07:25:55.767Z,87.60
2018-07-30T07:28:30.113Z,87.70
2018-07-30T07:31:19.336Z,88.20
2018-07-30T07:33:57.355Z,88.60
2018-07-30T07:36:36.174Z,86.20
2018-07-30T07:42:05.527Z,86.90
2018-07-30T07:45:05.565Z,87.10
2018-07-30T07:48:03.215Z,87.60
2018-07-30T07:50:41.899Z,87.20
2018-07-30T07:53:13.937Z,87.10
2018-07-30T07:56:58.676Z,86.60
2018-07-30T08:06:14.008Z,86.30
2018-07-30T08:24:48.552Z,84.30
2018-07-30T08:29:02.771Z,82.30
2018-07-30T08:31:40.616Z,80.80
2018-07-30T08:34:19.493Z,81.00
2018-07-30T08:37:16.673Z,80.00
2018-07-30T08:40:44.264Z,79.60
2018-07-30T09:04:30.396Z,78.70
2018-07-30T09:12:29.093Z,79.80
2018-07-30T09:20:34.473Z,79.40
2018-07-30T09:23:20.367Z,78.30
2018-07-30T09:26:03.403Z,78.40
2018-07-30T09:28:56.481Z,77.80
2018-07-30T09:31:29.611Z,78.40
2018-07-30T09:34:13.818Z,77.50
2018-07-30T09:36:49.774Z,76.90
2018-07-30T09:39:23.994Z,77.90
2018-07-30T09:42:15.856Z,77.60
2018-07-30T09:44:56.483Z,76.90
2018-07-30T09:47:39.608Z,74.10
2018-07-30T09:50:43.677Z,73.00
2018-07-30T10:09:25.000Z,73.40
2018-07-30T10:12:39.252Z,72.70
2018-07-30T10:23:10.350Z,72.50
2018-07-30T10:26:11.851Z,73.20
2018-07-30T10:31:37.980Z,73.60
2018-07-30T10:34:13.244Z,72.80
2018-07-30T10:39:31.980Z,73.00
2018-07-30T10:42:16.906Z,73.30
2018-07-30T10:44:45.537Z,73.00
2018-07-30T10:47:13.985Z,73.70
2018-07-30T10:49:46.676Z,73.30
2018-07-30T10:52:15.334Z,73.90
2018-07-30T10:54:44.732Z,74.20
2018-07-30T10:57:13.411Z,73.90
2018-07-30T10:59:42.069Z,73.60
2018-07-30T11:02:10.589Z,74.90
2018-07-30T11:04:42.829Z,74.20
2018-07-30T11:07:14.668Z,74.40
2018-07-30T11:09:43.264Z,75.20
2018-07-30T11:14:40.877Z,77.80
2018-07-30T11:17:14.643Z,77.90
2018-07-30T11:19:43.203Z,77.80
2018-07-30T11:22:17.108Z,78.10
2018-07-30T11:24:48.792Z,78.30
2018-07-30T11:27:20.181Z,77.90
2018-07-30T11:29:51.283Z,79.00
2018-07-30T11:32:23.582Z,78.90
2018-07-30T11:34:54.012Z,78.00
2018-07-30T11:37:23.262Z,77.00
2018-07-30T11:39:54.216Z,76.40
2018-07-30T11:42:26.824Z,76.70
2018-07-30T11:45:07.544Z,77.20
2018-07-30T11:47:47.453Z,77.90
2018-07-30T11:50:34.348Z,76.70
2018-07-30T11:53:05.761Z,75.70
2018-07-30T12:23:20.366Z,67.60
2018-07-30T12:26:35.724Z,69.20
2018-07-30T12:34:46.833Z,67.30
2018-07-30T12:41:30.516Z,67.10
2018-07-30T12:44:07.022Z,65.30
2018-07-30T12:46:59.136Z,66.60
2018-07-30T12:50:05.542Z,68.70
2018-07-30T13:15:58.117Z,66.50
2018-07-30T13:18:29.275Z,69.70
2018-07-30T13:36:40.916Z,66.80
2018-07-30T13:39:10.364Z,67.90
2018-07-30T13:41:41.185Z,67.50
2018-07-30T13:44:09.672Z,67.80
2018-07-30T13:46:40.454Z,67.10
2018-07-30T13:49:09.532Z,66.50
2018-07-30T13:51:38.088Z,65.40
2018-07-30T13:54:06.641Z,66.40
2018-07-30T13:56:35.327Z,67.20
2018-07-30T13:59:09.021Z,64.80
2018-07-30T14:01:37.472Z,64.30
2018-07-30T14:06:34.447Z,66.00
2018-07-30T14:09:03.073Z,65.10
2018-07-30T14:17:49.516Z,66.40
2018-07-30T14:20:19.631Z,67.60
2018-07-30T14:22:50.390Z,68.00
2018-07-30T14:25:20.810Z,68.70
2018-07-30T14:27:50.089Z,70.10
2018-07-30T14:30:21.734Z,69.60
2018-07-30T14:32:51.350Z,68.90
2018-07-30T14:35:21.203Z,70.30
2018-07-30T14:37:51.082Z,69.90
2018-07-30T14:40:20.756Z,69.90
2018-07-30T14:42:49.359Z,70.00
2018-07-30T14:45:17.997Z,69.80
2018-07-30T14:47:47.197Z,70.00
2018-07-30T14:50:15.710Z,71.10
2018-07-30T14:52:44.259Z,71.40
2018-07-30T14:55:12.796Z,71.80
2018-07-30T14:57:42.158Z,72.70
2018-07-30T15:00:10.866Z,72.90
2018-07-30T15:02:39.405Z,73.40
2018-07-30T15:05:08.078Z,73.80
2018-07-30T15:07:36.619Z,74.50
2018-07-30T15:10:05.946Z,74.50
2018-07-30T15:12:34.682Z,73.40
2018-07-30T15:15:03.945Z,73.50
2018-07-30T15:17:32.456Z,73.80
2018-07-30T15:20:00.973Z,72.80
2018-07-30T15:22:29.552Z,71.50
2018-07-30T15:24:58.080Z,72.30
2018-07-30T15:27:26.670Z,70.40
2018-07-30T15:29:56.999Z,69.60
2018-07-30T15:32:32.293Z,70.00
2018-07-30T15:35:06.558Z,69.00
2018-07-30T15:37:36.591Z,69.70
2018-07-30T15:40:11.495Z,69.60
2018-07-30T15:42:40.445Z,70.80
2018-07-30T15:45:15.823Z,71.20
2018-07-30T15:47:48.314Z,70.40
2018-07-30T15:50:28.736Z,70.80
2018-07-30T15:53:00.632Z,71.40
2018-07-30T15:56:13.343Z,70.60
2018-07-30T15:58:49.461Z,69.90
2018-07-30T16:01:22.514Z,70.20
2018-07-30T16:03:53.030Z,69.90
2018-07-30T16:06:24.264Z,70.70
2018-07-30T16:11:40.797Z,72.30
2018-07-30T16:14:10.203Z,73.10
2018-07-30T16:16:41.338Z,73.80
2018-07-30T16:19:11.362Z,73.50
2018-07-30T16:21:44.354Z,74.90
2018-07-30T16:24:18.189Z,74.50
2018-07-30T16:26:58.313Z,76.00
2018-07-30T16:29:43.285Z,75.80
2018-07-30T16:32:47.076Z,75.60
2018-07-30T16:38:18.975Z,74.50
2018-07-30T16:41:07.041Z,74.50
2018-07-30T16:43:56.900Z,75.40
2018-07-30T16:46:37.646Z,75.50
2018-07-30T16:49:18.145Z,77.20
2018-07-30T16:54:51.792Z,76.80
2018-07-30T16:57:26.994Z,76.90
2018-07-30T17:05:14.223Z,78.50
2018-07-30T17:07:59.018Z,77.50
2018-07-30T17:20:24.569Z,78.90
2018-07-30T17:23:00.688Z,80.00
2018-07-30T17:25:40.000Z,80.10
2018-07-30T17:28:35.300Z,79.60
2018-07-30T17:31:35.888Z,79.20
2018-07-30T17:38:26.641Z,78.80
2018-07-30T17:41:06.570Z,75.90
2018-07-30T17:49:32.299Z,76.20
2018-07-30T17:52:18.210Z,76.60
2018-07-30T17:54:59.328Z,75.30
2018-07-30T18:15:08.953Z,78.80
2018-07-30T18:17:38.503Z,78.40
2018-07-30T18:20:07.187Z,78.20
2018-07-30T18:22:35.817Z,78.10
2018-07-30T18:28:43.535Z,78.70
2018-07-30T18:31:13.015Z,79.40
2018-07-30T18:33:41.609Z,80.60
2018-07-30T18:39:41.293Z,80.60
2018-07-30T18:42:09.864Z,81.80
2018-07-30T18:44:38.508Z,81.80
2018-07-30T18:47:07.155Z,83.00
2018-07-30T18:49:35.803Z,82.30
2018-07-30T18:52:06.124Z,81.30
2018-07-30T18:54:44.705Z,81.80
2018-07-30T19:03:18.223Z,86.90
2018-07-30T19:05:46.980Z,86.50
2018-07-30T19:08:15.696Z,86.30
2018-07-30T19:10:44.208Z,86.20
2018-07-30T19:13:13.020Z,86.80
2018-07-30T19:15:41.973Z,87.80
2018-07-30T19:18:11.491Z,87.30
2018-07-30T19:20:40.074Z,88.00
2018-07-30T19:23:09.305Z,87.60
2018-07-30T20:41:28.444Z,88.40
2018-07-30T20:43:57.273Z,87.70
2018-07-30T20:46:28.814Z,87.90
2018-07-30T20:48:58.841Z,87.80
2018-07-30T20:51:27.636Z,87.40
2018-07-30T20:53:56.209Z,87.20
2018-07-30T20:56:24.889Z,87.70
2018-07-30T20:58:53.505Z,87.90
2018-07-30T21:01:22.090Z,87.60
2018-07-30T21:03:50.650Z,88.10
2018-07-30T21:06:19.177Z,87.70
2018-07-30T21:08:48.485Z,88.50
2018-07-30T21:11:17.088Z,88.70
2018-07-30T21:13:45.870Z,89.10
2018-07-30T21:16:14.550Z,89.20
2018-07-30T21:18:43.132Z,89.20
2018-07-30T21:21:11.838Z,89.20
2018-07-30T21:23:40.540Z,89.40
2018-07-30T21:26:09.177Z,89.00
2018-07-30T21:28:38.151Z,89.20
2018-07-30T21:31:06.963Z,88.90
2018-07-30T21:33:35.874Z,89.10
2018-07-30T21:36:04.513Z,89.20
2018-07-30T21:38:33.919Z,89.90
2018-07-30T21:41:02.654Z,89.80
2018-07-30T21:43:31.402Z,89.80
2018-07-30T21:46:00.078Z,89.60
2018-07-30T21:48:29.049Z,90.00
2018-07-30T21:50:57.651Z,89.90
2018-07-30T21:53:26.711Z,89.80
2018-07-30T21:55:55.435Z,89.90
2018-07-30T21:58:24.138Z,90.00
2018-07-30T22:00:55.870Z,90.20
2018-07-30T22:03:26.589Z,90.30
2018-07-30T22:06:00.320Z,90.50
2018-07-30T22:08:29.468Z,90.70
2018-07-30T22:10:58.324Z,90.80
2018-07-30T22:13:27.146Z,90.70
2018-07-30T22:15:55.877Z,91.10
2018-07-30T22:18:35.828Z,91.10
2018-07-30T22:21:04.511Z,91.00
2018-07-30T22:23:34.320Z,91.10
2018-07-30T22:26:03.013Z,91.30
2018-07-30T22:28:31.647Z,91.30
2018-07-30T22:31:04.301Z,91.30
2018-07-30T22:33:33.546Z,91.30
2018-07-30T22:36:02.150Z,91.10
2018-07-30T22:41:53.651Z,91.20
2018-07-30T22:44:45.813Z,91.30
2018-07-30T22:47:40.440Z,91.50
2018-07-30T22:50:14.876Z,91.80
2018-07-30T22:52:49.179Z,92.00
2018-07-30T22:55:17.791Z,92.10
2018-07-30T22:57:46.630Z,92.10
2018-07-30T23:00:15.312Z,92.20
2018-07-30T23:05:17.652Z,92.10
2018-07-30T23:07:46.603Z,91.90
2018-07-30T23:12:49.954Z,91.90
2018-07-30T23:15:25.407Z,92.20
2018-07-30T23:17:55.411Z,92.40
2018-07-30T23:20:33.128Z,92.30
2018-07-30T23:23:04.526Z,92.40
2018-07-30T23:25:34.131Z,92.40
2018-07-30T23:28:04.170Z,92.30
2018-07-30T23:30:33.271Z,92.40
2018-07-30T23:33:05.105Z,92.30
2018-07-30T23:35:37.247Z,92.50
2018-07-30T23:38:07.729Z,92.60
2018-07-30T23:40:38.051Z,92.80
2018-07-30T23:43:12.445Z,92.80
2018-07-30T23:45:41.321Z,93.00
2018-07-30T23:48:10.521Z,93.00
2018-07-30T23:50:45.218Z,93.10
2018-07-30T23:53:16.664Z,93.20
2018-07-30T23:55:48.627Z,93.30
2018-07-30T23:58:17.662Z,93.40
